NOZ8LE ENBR-EKCH
Flight info
| Callsign | NOZ8LE |
|---|---|
| Flight time | 1h 8m |
| Altitude | 35000 |
| Route | TUXIL DCT ZOL DCT TESPI |
| Aircraft | B738/M-SDE2E3FGHIRWXY/LB1 |
Departure
| Time | 2026-05-05 20:14 |
|---|---|
| Airport | Bergen Airport, Flesland (ENBR) |
Arrival
| Time | 2026-05-05 21:22 |
|---|---|
| Airport | Copenhagen Kastrup Airport (EKCH) |
| Time | Latitude | Longitude | Altitude | Speed | Heading |
|---|---|---|---|---|---|
| 2026-05-05 19:50 | 60.28858 | 5.22566 | 172 ft | 0 kts | 60° |
| 2026-05-05 20:05 | 60.28852 | 5.22546 | 172 ft | 2 kts | 60° |
| 2026-05-05 20:05 | 60.28844 | 5.22518 | 171 ft | 2 kts | 59° |
| 2026-05-05 20:05 | 60.28836 | 5.22489 | 169 ft | 2 kts | 59° |
| 2026-05-05 20:06 | 60.28827 | 5.22461 | 167 ft | 2 kts | 51° |
| 2026-05-05 20:06 | 60.28814 | 5.22440 | 166 ft | 2 kts | 7° |
| 2026-05-05 20:06 | 60.28798 | 5.22442 | 165 ft | 2 kts | 350° |
| 2026-05-05 20:06 | 60.28782 | 5.22448 | 165 ft | 2 kts | 350° |
| 2026-05-05 20:07 | 60.28766 | 5.22453 | 165 ft | 2 kts | 351° |
| 2026-05-05 20:07 | 60.28761 | 5.22455 | 165 ft | 0 kts | 351° |
| 2026-05-05 20:09 | 60.28776 | 5.22447 | 165 ft | 5 kts | 342° |
| 2026-05-05 20:09 | 60.28788 | 5.22363 | 162 ft | 10 kts | 221° |
| 2026-05-05 20:10 | 60.28704 | 5.22351 | 163 ft | 13 kts | 171° |
| 2026-05-05 20:10 | 60.28617 | 5.22380 | 164 ft | 13 kts | 170° |
| 2026-05-05 20:10 | 60.28530 | 5.22410 | 162 ft | 13 kts | 171° |
| 2026-05-05 20:10 | 60.28444 | 5.22439 | 162 ft | 12 kts | 169° |
| 2026-05-05 20:11 | 60.28356 | 5.22469 | 158 ft | 14 kts | 171° |
| 2026-05-05 20:11 | 60.28251 | 5.22504 | 154 ft | 16 kts | 171° |
| 2026-05-05 20:11 | 60.28132 | 5.22541 | 150 ft | 15 kts | 172° |
| 2026-05-05 20:11 | 60.28070 | 5.22513 | 151 ft | 3 kts | 222° |
| 2026-05-05 20:12 | 60.28058 | 5.22475 | 151 ft | 4 kts | 249° |
| 2026-05-05 20:12 | 60.28050 | 5.22409 | 149 ft | 7 kts | 259° |
| 2026-05-05 20:12 | 60.28051 | 5.22307 | 149 ft | 7 kts | 288° |
| 2026-05-05 20:12 | 60.28087 | 5.22242 | 149 ft | 7 kts | 341° |
| 2026-05-05 20:13 | 60.28101 | 5.22235 | 149 ft | 0 kts | 348° |
| 2026-05-05 20:13 | 60.28102 | 5.22235 | 149 ft | 0 kts | 348° |
| 2026-05-05 20:13 | 60.28246 | 5.22187 | 154 ft | 55 kts | 351° |
| 2026-05-05 20:13 | 60.28854 | 5.21983 | 161 ft | 121 kts | 350° |
| 2026-05-05 20:14 | 60.29837 | 5.21637 | 349 ft | 157 kts | 349° |
| 2026-05-05 20:14 | 60.30942 | 5.21265 | 972 ft | 171 kts | 349° |
| 2026-05-05 20:14 | 60.32196 | 5.20808 | 1552 ft | 185 kts | 350° |
| 2026-05-05 20:14 | 60.33465 | 5.20406 | 2329 ft | 193 kts | 350° |
| 2026-05-05 20:15 | 60.34871 | 5.19962 | 2553 ft | 216 kts | 350° |
| 2026-05-05 20:15 | 60.36403 | 5.19469 | 2920 ft | 231 kts | 350° |
| 2026-05-05 20:15 | 60.38066 | 5.18921 | 3300 ft | 250 kts | 350° |
| 2026-05-05 20:15 | 60.39880 | 5.18312 | 3527 ft | 277 kts | 350° |
| 2026-05-05 20:16 | 60.41829 | 5.17646 | 4119 ft | 288 kts | 349° |
| 2026-05-05 20:16 | 60.43817 | 5.16963 | 4937 ft | 291 kts | 349° |
| 2026-05-05 20:16 | 60.45794 | 5.16002 | 5753 ft | 293 kts | 335° |
| 2026-05-05 20:16 | 60.47405 | 5.13524 | 6569 ft | 294 kts | 309° |
| 2026-05-05 20:17 | 60.48345 | 5.09924 | 7332 ft | 297 kts | 287° |
| 2026-05-05 20:17 | 60.48535 | 5.05739 | 8070 ft | 303 kts | 263° |
| 2026-05-05 20:17 | 60.47717 | 5.01805 | 8831 ft | 311 kts | 233° |
| 2026-05-05 20:17 | 60.46017 | 4.98977 | 9637 ft | 319 kts | 209° |
| 2026-05-05 20:18 | 60.43896 | 4.97710 | 10318 ft | 328 kts | 187° |
| 2026-05-05 20:18 | 60.41595 | 4.97933 | 10987 ft | 334 kts | 176° |
| 2026-05-05 20:18 | 60.39269 | 4.98462 | 11633 ft | 339 kts | 176° |
| 2026-05-05 20:18 | 60.36907 | 4.99019 | 12329 ft | 344 kts | 176° |
| 2026-05-05 20:19 | 60.34516 | 4.99562 | 13040 ft | 347 kts | 177° |
| 2026-05-05 20:19 | 60.32101 | 5.00081 | 13785 ft | 351 kts | 177° |
| 2026-05-05 20:19 | 60.29660 | 5.00588 | 14455 ft | 355 kts | 178° |
| 2026-05-05 20:19 | 60.27195 | 5.01120 | 15178 ft | 358 kts | 176° |
| 2026-05-05 20:20 | 60.24717 | 5.01995 | 15885 ft | 364 kts | 173° |
| 2026-05-05 20:20 | 60.22228 | 5.03053 | 16579 ft | 368 kts | 173° |
| 2026-05-05 20:20 | 60.19716 | 5.04107 | 17261 ft | 371 kts | 174° |
| 2026-05-05 20:20 | 60.17192 | 5.05127 | 17935 ft | 375 kts | 175° |
| 2026-05-05 20:21 | 60.14636 | 5.06482 | 18563 ft | 386 kts | 165° |
| 2026-05-05 20:21 | 60.12141 | 5.08588 | 19130 ft | 392 kts | 162° |
| 2026-05-05 20:21 | 60.09638 | 5.10850 | 19676 ft | 397 kts | 162° |
| 2026-05-05 20:21 | 60.07108 | 5.13137 | 20149 ft | 401 kts | 164° |
| 2026-05-05 20:22 | 60.04533 | 5.15423 | 20589 ft | 408 kts | 164° |
| 2026-05-05 20:22 | 60.01926 | 5.17699 | 21142 ft | 411 kts | 165° |
| 2026-05-05 20:22 | 59.99300 | 5.19965 | 21742 ft | 412 kts | 165° |
| 2026-05-05 20:22 | 59.96647 | 5.22233 | 22239 ft | 417 kts | 166° |
| 2026-05-05 20:23 | 59.93953 | 5.24522 | 22598 ft | 425 kts | 166° |
| 2026-05-05 20:23 | 59.91220 | 5.26842 | 23080 ft | 429 kts | 166° |
| 2026-05-05 20:23 | 59.89404 | 5.28386 | 23435 ft | 430 kts | 166° |
| 2026-05-05 20:23 | 59.86646 | 5.30729 | 23938 ft | 432 kts | 166° |
| 2026-05-05 20:24 | 59.83878 | 5.33073 | 24386 ft | 434 kts | 166° |
| 2026-05-05 20:24 | 59.81091 | 5.35413 | 24814 ft | 434 kts | 168° |
| 2026-05-05 20:24 | 59.78230 | 5.36899 | 25210 ft | 416 kts | 185° |
| 2026-05-05 20:24 | 59.75354 | 5.37227 | 25663 ft | 413 kts | 186° |
| 2026-05-05 20:25 | 59.72480 | 5.37578 | 26090 ft | 416 kts | 185° |
| 2026-05-05 20:25 | 59.69586 | 5.38008 | 26473 ft | 419 kts | 185° |
| 2026-05-05 20:25 | 59.66669 | 5.38486 | 26848 ft | 422 kts | 185° |
| 2026-05-05 20:25 | 59.63739 | 5.38997 | 27236 ft | 425 kts | 184° |
| 2026-05-05 20:26 | 59.60785 | 5.39686 | 27611 ft | 429 kts | 182° |
| 2026-05-05 20:26 | 59.57814 | 5.40474 | 27984 ft | 432 kts | 182° |
| 2026-05-05 20:26 | 59.54834 | 5.41280 | 28357 ft | 433 kts | 182° |
| 2026-05-05 20:26 | 59.51838 | 5.42074 | 28720 ft | 435 kts | 182° |
| 2026-05-05 20:27 | 59.48832 | 5.42850 | 28987 ft | 437 kts | 182° |
| 2026-05-05 20:27 | 59.45813 | 5.43616 | 29384 ft | 437 kts | 182° |
| 2026-05-05 20:27 | 59.42793 | 5.44375 | 29765 ft | 438 kts | 182° |
| 2026-05-05 20:27 | 59.39769 | 5.45145 | 30167 ft | 439 kts | 181° |
| 2026-05-05 20:28 | 59.36762 | 5.46105 | 30555 ft | 440 kts | 179° |
| 2026-05-05 20:28 | 59.33750 | 5.47212 | 30919 ft | 440 kts | 178° |
| 2026-05-05 20:28 | 59.30743 | 5.48363 | 31254 ft | 440 kts | 178° |
| 2026-05-05 20:28 | 59.27735 | 5.49511 | 31601 ft | 440 kts | 178° |
| 2026-05-05 20:29 | 59.24734 | 5.50638 | 31954 ft | 439 kts | 178° |
| 2026-05-05 20:29 | 59.21737 | 5.51743 | 32298 ft | 438 kts | 179° |
| 2026-05-05 20:29 | 59.18743 | 5.52832 | 32572 ft | 437 kts | 178° |
| 2026-05-05 20:29 | 59.15757 | 5.53910 | 32936 ft | 436 kts | 178° |
| 2026-05-05 20:30 | 59.12776 | 5.54982 | 33284 ft | 435 kts | 178° |
| 2026-05-05 20:30 | 59.09805 | 5.56047 | 33598 ft | 435 kts | 178° |
| 2026-05-05 20:30 | 59.06827 | 5.57113 | 33904 ft | 435 kts | 178° |
| 2026-05-05 20:30 | 59.03859 | 5.58175 | 34200 ft | 434 kts | 178° |
| 2026-05-05 20:31 | 59.00880 | 5.59240 | 34416 ft | 435 kts | 178° |
| 2026-05-05 20:31 | 58.97915 | 5.60297 | 34607 ft | 436 kts | 178° |
| 2026-05-05 20:31 | 58.94925 | 5.61362 | 34826 ft | 436 kts | 178° |
| 2026-05-05 20:31 | 58.91944 | 5.62425 | 35029 ft | 438 kts | 176° |
| 2026-05-05 20:32 | 58.88972 | 5.64068 | 35009 ft | 452 kts | 165° |
| 2026-05-05 20:32 | 58.86148 | 5.66881 | 35043 ft | 462 kts | 153° |
| 2026-05-05 20:32 | 58.83595 | 5.70744 | 35045 ft | 469 kts | 143° |
| 2026-05-05 20:33 | 58.78913 | 5.79444 | 35045 ft | 466 kts | 142° |
| 2026-05-05 20:33 | 58.74271 | 5.88128 | 35037 ft | 464 kts | 142° |
| 2026-05-05 20:34 | 58.69621 | 5.96675 | 35037 ft | 463 kts | 143° |
| 2026-05-05 20:34 | 58.65094 | 6.04892 | 35037 ft | 463 kts | 143° |
| 2026-05-05 20:35 | 58.60396 | 6.13363 | 35031 ft | 464 kts | 143° |
| 2026-05-05 20:35 | 58.55685 | 6.21827 | 35021 ft | 465 kts | 143° |
| 2026-05-05 20:36 | 58.50960 | 6.30289 | 35021 ft | 466 kts | 143° |
| 2026-05-05 20:36 | 58.46221 | 6.38744 | 35022 ft | 467 kts | 144° |
| 2026-05-05 20:37 | 58.41458 | 6.47210 | 35024 ft | 468 kts | 144° |
| 2026-05-05 20:37 | 58.36684 | 6.55662 | 35013 ft | 469 kts | 144° |
| 2026-05-05 20:38 | 58.31901 | 6.64099 | 35012 ft | 469 kts | 144° |
| 2026-05-05 20:38 | 58.27116 | 6.72508 | 34996 ft | 467 kts | 144° |
| 2026-05-05 20:39 | 58.22338 | 6.80872 | 35002 ft | 467 kts | 144° |
| 2026-05-05 20:39 | 58.17560 | 6.89201 | 35003 ft | 467 kts | 144° |
| 2026-05-05 20:40 | 58.12780 | 6.97502 | 34996 ft | 466 kts | 144° |
| 2026-05-05 20:40 | 58.08147 | 7.05518 | 34999 ft | 465 kts | 144° |
| 2026-05-05 20:41 | 58.03366 | 7.13760 | 34982 ft | 465 kts | 144° |
| 2026-05-05 20:41 | 57.98595 | 7.21953 | 34954 ft | 464 kts | 144° |
| 2026-05-05 20:42 | 57.93858 | 7.30058 | 34979 ft | 463 kts | 144° |
| 2026-05-05 20:42 | 57.89096 | 7.38176 | 34979 ft | 462 kts | 144° |
| 2026-05-05 20:43 | 57.84337 | 7.46257 | 34986 ft | 461 kts | 144° |
| 2026-05-05 20:43 | 57.79577 | 7.54308 | 34977 ft | 461 kts | 144° |
| 2026-05-05 20:44 | 57.74806 | 7.62349 | 34977 ft | 461 kts | 144° |
| 2026-05-05 20:44 | 57.70033 | 7.70365 | 34978 ft | 461 kts | 145° |
| 2026-05-05 20:45 | 57.62867 | 7.82344 | 34964 ft | 460 kts | 144° |
| 2026-05-05 20:45 | 57.58089 | 7.90294 | 34972 ft | 460 kts | 145° |
| 2026-05-05 20:46 | 57.53309 | 7.98219 | 34971 ft | 460 kts | 145° |
| 2026-05-05 20:46 | 57.48660 | 8.05898 | 34970 ft | 460 kts | 145° |
| 2026-05-05 20:47 | 57.43869 | 8.13784 | 34976 ft | 460 kts | 145° |
| 2026-05-05 20:47 | 57.39072 | 8.21650 | 34967 ft | 460 kts | 145° |
| 2026-05-05 20:48 | 57.34282 | 8.29480 | 34970 ft | 458 kts | 145° |
| 2026-05-05 20:48 | 57.29498 | 8.37269 | 34964 ft | 458 kts | 145° |
| 2026-05-05 20:49 | 57.24713 | 8.45030 | 34972 ft | 457 kts | 145° |
| 2026-05-05 20:49 | 57.19964 | 8.52706 | 34972 ft | 457 kts | 145° |
| 2026-05-05 20:50 | 57.15185 | 8.60404 | 34972 ft | 456 kts | 145° |
| 2026-05-05 20:50 | 57.10402 | 8.68081 | 34971 ft | 456 kts | 146° |
| 2026-05-05 20:51 | 57.05620 | 8.75728 | 34966 ft | 455 kts | 145° |
| 2026-05-05 20:51 | 57.00841 | 8.83344 | 34978 ft | 455 kts | 145° |
| 2026-05-05 20:52 | 56.96065 | 8.90928 | 34972 ft | 454 kts | 145° |
| 2026-05-05 20:52 | 56.91291 | 8.98482 | 34976 ft | 454 kts | 146° |
| 2026-05-05 20:53 | 56.86641 | 9.05815 | 34981 ft | 453 kts | 146° |
| 2026-05-05 20:53 | 56.81857 | 9.13333 | 34984 ft | 453 kts | 146° |
| 2026-05-05 20:54 | 56.77068 | 9.20832 | 34972 ft | 454 kts | 146° |
| 2026-05-05 20:54 | 56.72357 | 9.28197 | 34672 ft | 440 kts | 146° |
| 2026-05-05 20:55 | 56.70056 | 9.31787 | 34395 ft | 432 kts | 146° |
| 2026-05-05 20:55 | 56.67775 | 9.35334 | 33991 ft | 429 kts | 146° |
| 2026-05-05 20:55 | 56.65518 | 9.38835 | 33582 ft | 426 kts | 146° |
| 2026-05-05 20:55 | 56.63269 | 9.42315 | 33183 ft | 422 kts | 147° |
| 2026-05-05 20:56 | 56.61070 | 9.45714 | 32803 ft | 419 kts | 147° |
| 2026-05-05 20:56 | 56.58869 | 9.49112 | 32434 ft | 415 kts | 147° |
| 2026-05-05 20:56 | 56.56645 | 9.52539 | 32057 ft | 412 kts | 147° |
| 2026-05-05 20:56 | 56.54468 | 9.55889 | 31683 ft | 409 kts | 147° |
| 2026-05-05 20:57 | 56.52307 | 9.59210 | 31326 ft | 406 kts | 147° |
| 2026-05-05 20:57 | 56.50209 | 9.62428 | 30984 ft | 403 kts | 147° |
| 2026-05-05 20:57 | 56.48048 | 9.65738 | 30614 ft | 400 kts | 147° |
| 2026-05-05 20:57 | 56.45929 | 9.68978 | 30225 ft | 398 kts | 147° |
| 2026-05-05 20:58 | 56.43822 | 9.72195 | 29867 ft | 395 kts | 147° |
| 2026-05-05 20:58 | 56.41754 | 9.75350 | 29495 ft | 391 kts | 147° |
| 2026-05-05 20:58 | 56.39687 | 9.78499 | 29119 ft | 388 kts | 147° |
| 2026-05-05 20:58 | 56.37639 | 9.81616 | 28757 ft | 384 kts | 147° |
| 2026-05-05 20:59 | 56.35618 | 9.84685 | 28383 ft | 381 kts | 147° |
| 2026-05-05 20:59 | 56.33603 | 9.87740 | 28025 ft | 378 kts | 147° |
| 2026-05-05 20:59 | 56.31593 | 9.90782 | 27656 ft | 375 kts | 147° |
| 2026-05-05 20:59 | 56.29603 | 9.93791 | 27304 ft | 372 kts | 147° |
| 2026-05-05 21:00 | 56.27626 | 9.96775 | 26962 ft | 370 kts | 147° |
| 2026-05-05 21:00 | 56.25661 | 9.99738 | 26613 ft | 367 kts | 147° |
| 2026-05-05 21:00 | 56.23797 | 10.02543 | 26286 ft | 365 kts | 147° |
| 2026-05-05 21:00 | 56.21856 | 10.05461 | 25938 ft | 363 kts | 147° |
| 2026-05-05 21:01 | 56.19941 | 10.08337 | 25598 ft | 361 kts | 147° |
| 2026-05-05 21:01 | 56.18011 | 10.11230 | 25267 ft | 359 kts | 147° |
| 2026-05-05 21:01 | 56.16107 | 10.14081 | 24923 ft | 358 kts | 147° |
| 2026-05-05 21:01 | 56.14200 | 10.16932 | 24572 ft | 356 kts | 147° |
| 2026-05-05 21:02 | 56.12306 | 10.19762 | 24249 ft | 354 kts | 147° |
| 2026-05-05 21:02 | 56.10413 | 10.22585 | 23920 ft | 352 kts | 147° |
| 2026-05-05 21:02 | 56.08534 | 10.25384 | 23588 ft | 351 kts | 147° |
| 2026-05-05 21:02 | 56.06657 | 10.28177 | 23188 ft | 350 kts | 147° |
| 2026-05-05 21:03 | 56.04811 | 10.30919 | 22825 ft | 348 kts | 147° |
| 2026-05-05 21:03 | 56.02930 | 10.33711 | 22478 ft | 346 kts | 147° |
| 2026-05-05 21:03 | 56.01088 | 10.36443 | 22153 ft | 344 kts | 147° |
| 2026-05-05 21:03 | 55.99263 | 10.39145 | 21816 ft | 341 kts | 147° |
| 2026-05-05 21:04 | 55.97462 | 10.41808 | 21489 ft | 339 kts | 147° |
| 2026-05-05 21:04 | 55.95651 | 10.44483 | 21163 ft | 338 kts | 147° |
| 2026-05-05 21:04 | 55.93835 | 10.47160 | 20838 ft | 340 kts | 147° |
| 2026-05-05 21:04 | 55.91951 | 10.49918 | 20547 ft | 365 kts | 147° |
| 2026-05-05 21:05 | 55.90078 | 10.53264 | 20242 ft | 396 kts | 132° |
| 2026-05-05 21:05 | 55.88489 | 10.57269 | 20024 ft | 396 kts | 126° |
| 2026-05-05 21:05 | 55.87248 | 10.61663 | 19599 ft | 400 kts | 114° |
| 2026-05-05 21:05 | 55.86288 | 10.66313 | 19117 ft | 400 kts | 113° |
| 2026-05-05 21:06 | 55.85360 | 10.70988 | 18642 ft | 400 kts | 112° |
| 2026-05-05 21:06 | 55.84443 | 10.75642 | 18227 ft | 397 kts | 112° |
| 2026-05-05 21:06 | 55.83528 | 10.80255 | 17801 ft | 394 kts | 112° |
| 2026-05-05 21:06 | 55.82616 | 10.84802 | 17380 ft | 390 kts | 112° |
| 2026-05-05 21:07 | 55.81701 | 10.89324 | 16944 ft | 386 kts | 112° |
| 2026-05-05 21:07 | 55.80790 | 10.93793 | 16518 ft | 383 kts | 112° |
| 2026-05-05 21:07 | 55.79880 | 10.98232 | 16103 ft | 381 kts | 112° |
| 2026-05-05 21:07 | 55.79012 | 11.02448 | 15719 ft | 378 kts | 112° |
| 2026-05-05 21:08 | 55.78112 | 11.06810 | 15322 ft | 375 kts | 112° |
| 2026-05-05 21:08 | 55.77215 | 11.11146 | 14935 ft | 372 kts | 112° |
| 2026-05-05 21:08 | 55.76327 | 11.15429 | 14549 ft | 369 kts | 112° |
| 2026-05-05 21:08 | 55.75438 | 11.19711 | 14166 ft | 367 kts | 112° |
| 2026-05-05 21:09 | 55.74558 | 11.23935 | 13790 ft | 364 kts | 112° |
| 2026-05-05 21:09 | 55.73682 | 11.28133 | 13378 ft | 361 kts | 112° |
| 2026-05-05 21:09 | 55.72813 | 11.32294 | 12984 ft | 358 kts | 112° |
| 2026-05-05 21:09 | 55.71952 | 11.36405 | 12600 ft | 355 kts | 112° |
| 2026-05-05 21:10 | 55.71094 | 11.40489 | 12219 ft | 352 kts | 112° |
| 2026-05-05 21:10 | 55.70244 | 11.44533 | 11829 ft | 349 kts | 112° |
| 2026-05-05 21:10 | 55.69400 | 11.48539 | 11453 ft | 346 kts | 112° |
| 2026-05-05 21:10 | 55.68560 | 11.52516 | 11088 ft | 343 kts | 112° |
| 2026-05-05 21:11 | 55.67726 | 11.56458 | 10735 ft | 340 kts | 112° |
| 2026-05-05 21:11 | 55.66900 | 11.60357 | 10376 ft | 337 kts | 112° |
| 2026-05-05 21:11 | 55.66355 | 11.62922 | 10132 ft | 335 kts | 112° |
| 2026-05-05 21:11 | 55.65536 | 11.66772 | 9768 ft | 333 kts | 112° |
| 2026-05-05 21:12 | 55.64467 | 11.71793 | 9345 ft | 321 kts | 111° |
| 2026-05-05 21:12 | 55.63700 | 11.75387 | 9221 ft | 303 kts | 111° |
| 2026-05-05 21:12 | 55.63206 | 11.77702 | 9131 ft | 292 kts | 112° |
| 2026-05-05 21:12 | 55.62504 | 11.80981 | 8908 ft | 280 kts | 112° |
| 2026-05-05 21:13 | 55.61817 | 11.84183 | 8486 ft | 277 kts | 111° |
| 2026-05-05 21:13 | 55.61136 | 11.87351 | 8057 ft | 274 kts | 111° |
| 2026-05-05 21:13 | 55.60465 | 11.90467 | 7655 ft | 270 kts | 111° |
| 2026-05-05 21:13 | 55.59797 | 11.93567 | 7236 ft | 268 kts | 111° |
| 2026-05-05 21:14 | 55.59137 | 11.96621 | 6830 ft | 265 kts | 110° |
| 2026-05-05 21:14 | 55.58484 | 11.99642 | 6457 ft | 261 kts | 110° |
| 2026-05-05 21:14 | 55.57887 | 12.02403 | 6101 ft | 257 kts | 110° |
| 2026-05-05 21:14 | 55.57253 | 12.05331 | 5811 ft | 254 kts | 110° |
| 2026-05-05 21:15 | 55.56613 | 12.08278 | 5533 ft | 254 kts | 110° |
| 2026-05-05 21:15 | 55.55988 | 12.11156 | 5275 ft | 254 kts | 110° |
| 2026-05-05 21:15 | 55.55346 | 12.14108 | 5014 ft | 254 kts | 110° |
| 2026-05-05 21:15 | 55.54720 | 12.16983 | 4741 ft | 255 kts | 109° |
| 2026-05-05 21:16 | 55.54084 | 12.19906 | 4464 ft | 255 kts | 109° |
| 2026-05-05 21:16 | 55.53450 | 12.22808 | 4171 ft | 251 kts | 109° |
| 2026-05-05 21:16 | 55.52822 | 12.25671 | 3892 ft | 249 kts | 109° |
| 2026-05-05 21:16 | 55.52199 | 12.28510 | 3599 ft | 247 kts | 109° |
| 2026-05-05 21:17 | 55.51543 | 12.31308 | 3306 ft | 247 kts | 117° |
| 2026-05-05 21:17 | 55.50483 | 12.33687 | 3058 ft | 244 kts | 130° |
| 2026-05-05 21:17 | 55.49377 | 12.35803 | 2995 ft | 225 kts | 129° |
| 2026-05-05 21:17 | 55.48369 | 12.37790 | 2980 ft | 211 kts | 128° |
| 2026-05-05 21:18 | 55.47618 | 12.39912 | 2950 ft | 200 kts | 97° |
| 2026-05-05 21:18 | 55.47841 | 12.42125 | 2956 ft | 180 kts | 52° |
| 2026-05-05 21:18 | 55.48684 | 12.43717 | 2837 ft | 178 kts | 46° |
| 2026-05-05 21:18 | 55.49552 | 12.45266 | 2606 ft | 176 kts | 43° |
| 2026-05-05 21:19 | 55.50439 | 12.46698 | 2392 ft | 169 kts | 41° |
| 2026-05-05 21:19 | 55.51303 | 12.48047 | 2151 ft | 166 kts | 41° |
| 2026-05-05 21:19 | 55.52175 | 12.49403 | 1925 ft | 168 kts | 40° |
| 2026-05-05 21:19 | 55.53038 | 12.50743 | 1685 ft | 160 kts | 41° |
| 2026-05-05 21:20 | 55.53839 | 12.51987 | 1470 ft | 149 kts | 40° |
| 2026-05-05 21:20 | 55.54606 | 12.53180 | 1269 ft | 146 kts | 40° |
| 2026-05-05 21:20 | 55.55337 | 12.54315 | 1118 ft | 134 kts | 40° |
| 2026-05-05 21:20 | 55.56014 | 12.55373 | 922 ft | 131 kts | 40° |
| 2026-05-05 21:21 | 55.56708 | 12.56449 | 721 ft | 134 kts | 40° |
| 2026-05-05 21:21 | 55.57407 | 12.57528 | 548 ft | 136 kts | 39° |
| 2026-05-05 21:21 | 55.58112 | 12.58625 | 330 ft | 137 kts | 40° |
| 2026-05-05 21:21 | 55.58820 | 12.59718 | 153 ft | 134 kts | 38° |
| 2026-05-05 21:22 | 55.59511 | 12.60798 | 36 ft | 130 kts | 39° |
| 2026-05-05 21:22 | 55.60121 | 12.61743 | 28 ft | 104 kts | 40° |
| 2026-05-05 21:22 | 55.60540 | 12.62392 | 27 ft | 67 kts | 40° |
| 2026-05-05 21:22 | 55.60792 | 12.62754 | 28 ft | 41 kts | 32° |
| 2026-05-05 21:23 | 55.61046 | 12.62892 | 23 ft | 35 kts | 12° |
| 2026-05-05 21:23 | 55.61241 | 12.63095 | 25 ft | 32 kts | 42° |
| 2026-05-05 21:23 | 55.61402 | 12.63340 | 24 ft | 29 kts | 40° |
| 2026-05-05 21:23 | 55.61549 | 12.63573 | 24 ft | 28 kts | 41° |
| 2026-05-05 21:24 | 55.61690 | 12.63790 | 23 ft | 26 kts | 40° |
| 2026-05-05 21:24 | 55.61819 | 12.63989 | 24 ft | 24 kts | 40° |
| 2026-05-05 21:24 | 55.61957 | 12.64139 | 23 ft | 23 kts | 26° |
| 2026-05-05 21:24 | 55.62098 | 12.64258 | 23 ft | 22 kts | 25° |
| 2026-05-05 21:25 | 55.62236 | 12.64371 | 22 ft | 22 kts | 20° |
| 2026-05-05 21:25 | 55.62378 | 12.64443 | 24 ft | 21 kts | 15° |
| 2026-05-05 21:25 | 55.62479 | 12.64472 | 23 ft | 14 kts | 347° |
| 2026-05-05 21:25 | 55.62557 | 12.64320 | 23 ft | 16 kts | 304° |
| 2026-05-05 21:26 | 55.62632 | 12.64287 | 23 ft | 13 kts | 22° |
| 2026-05-05 21:26 | 55.62701 | 12.64333 | 23 ft | 8 kts | 4° |
| 2026-05-05 21:26 | 55.62724 | 12.64299 | 24 ft | 5 kts | 303° |
| 2026-05-05 21:26 | 55.62735 | 12.64270 | 9 ft | 0 kts | 303° |